createdAt,value
2022-07-31T00:05:05.342Z,63.9
2022-07-31T00:07:03.811Z,64.2
2022-07-31T00:12:09.779Z,64.1
2022-07-31T00:18:28.332Z,63.9
2022-07-31T00:22:22.596Z,64.2
2022-07-31T00:29:26.204Z,64.2
2022-07-31T00:34:09.566Z,63.9
2022-07-31T00:49:37.173Z,63.9
2022-07-31T01:02:29.802Z,64.0
2022-07-31T01:07:35.197Z,63.9
2022-07-31T01:10:50.400Z,63.9
2022-07-31T01:15:36.851Z,63.9
2022-07-31T01:25:49.719Z,63.9
2022-07-31T01:31:10.697Z,63.9
2022-07-31T01:41:24.744Z,63.9
2022-07-31T01:46:37.438Z,63.3
2022-07-31T01:51:38.599Z,63.3
2022-07-31T01:56:45.106Z,63.6
2022-07-31T02:01:55.612Z,63.5
2022-07-31T02:38:28.967Z,63.0
2022-07-31T03:05:09.901Z,64.4
2022-07-31T03:10:21.285Z,63.1
2022-07-31T03:15:27.678Z,63.1
2022-07-31T03:20:54.642Z,63.3
2022-07-31T03:25:37.012Z,63.3
2022-07-31T03:30:43.362Z,63.6
2022-07-31T03:35:49.753Z,63.8
2022-07-31T03:40:56.196Z,63.9
2022-07-31T03:51:54.607Z,64.3
2022-07-31T03:56:16.488Z,64.2
2022-07-31T03:58:26.710Z,64.3
2022-07-31T04:01:23.912Z,64.2
2022-07-31T04:06:38.260Z,64.3
2022-07-31T04:11:59.687Z,64.4
2022-07-31T04:16:43.028Z,64.4
2022-07-31T04:22:09.694Z,64.4
2022-07-31T04:27:19.869Z,64.4
2022-07-31T04:32:02.529Z,65.3
2022-07-31T04:37:28.644Z,64.5
2022-07-31T05:04:32.697Z,64.9
2022-07-31T05:09:36.382Z,64.4
2022-07-31T05:20:44.451Z,64.4
2022-07-31T05:25:30.782Z,64.5
2022-07-31T05:32:16.745Z,64.4
2022-07-31T05:47:40.693Z,64.9
2022-07-31T05:52:34.607Z,65.4
2022-07-31T05:57:40.999Z,65.8
2022-07-31T06:02:51.421Z,66.8
2022-07-31T06:11:46.431Z,66.9
2022-07-31T06:15:17.440Z,67.9
2022-07-31T06:19:24.803Z,67.6
2022-07-31T06:24:51.169Z,67.3
2022-07-31T06:30:01.561Z,67.3
2022-07-31T06:35:03.941Z,67.9
2022-07-31T06:40:10.314Z,68.5
2022-07-31T06:50:03.076Z,69.7
2022-07-31T06:55:09.443Z,70.2
2022-07-31T07:00:20.517Z,70.9
2022-07-31T07:05:22.259Z,70.8
2022-07-31T07:10:28.655Z,71.5
2022-07-31T07:15:35.013Z,72.0
2022-07-31T07:20:31.372Z,72.3
2022-07-31T07:26:06.838Z,72.7
2022-07-31T07:30:58.181Z,72.9
2022-07-31T07:36:23.075Z,73.4
2022-07-31T07:41:06.942Z,73.1
2022-07-31T07:46:41.380Z,73.1
2022-07-31T07:51:19.709Z,72.8
2022-07-31T07:56:16.646Z,73.2
2022-07-31T08:01:33.122Z,72.8
2022-07-31T08:06:29.432Z,73.2
2022-07-31T08:11:34.926Z,73.1
2022-07-31T08:16:56.357Z,73.2
2022-07-31T08:21:48.724Z,72.8
2022-07-31T08:27:39.709Z,72.5
2022-07-31T08:32:11.505Z,72.8
2022-07-31T08:38:02.175Z,72.1
2022-07-31T08:42:44.965Z,72.5
2022-07-31T08:47:21.300Z,72.5
2022-07-31T08:52:37.824Z,72.5
2022-07-31T08:57:44.194Z,72.7
2022-07-31T09:07:46.922Z,72.9
2022-07-31T09:12:53.302Z,72.8
2022-07-31T09:18:09.698Z,73.3
2022-07-31T09:23:16.077Z,72.6
2022-07-31T09:28:42.489Z,72.6
2022-07-31T09:33:18.803Z,72.5
2022-07-31T09:38:35.212Z,72.3
2022-07-31T09:43:51.536Z,72.2
2022-07-31T09:48:52.164Z,71.7
2022-07-31T09:54:08.518Z,71.2
2022-07-31T09:59:00.842Z,71.0
2022-07-31T10:04:07.244Z,70.9
2022-07-31T10:09:33.714Z,70.5
2022-07-31T10:14:10.096Z,70.5
2022-07-31T10:19:26.482Z,70.7
2022-07-31T10:24:33.490Z,70.7
2022-07-31T10:29:38.835Z,70.4
2022-07-31T10:35:06.246Z,70.6
2022-07-31T10:39:56.663Z,70.7
2022-07-31T10:45:03.027Z,70.6
2022-07-31T10:50:05.475Z,71.1
2022-07-31T10:55:11.899Z,71.5
2022-07-31T11:00:18.285Z,72.0
2022-07-31T11:05:24.672Z,72.9
2022-07-31T11:10:21.082Z,73.9
2022-07-31T11:15:37.511Z,74.9
2022-07-31T11:20:33.903Z,74.6
2022-07-31T11:25:50.309Z,74.6
2022-07-31T11:36:03.089Z,73.4
2022-07-31T11:41:09.451Z,73.2
2022-07-31T11:46:05.830Z,72.9
2022-07-31T11:52:30.978Z,72.7
2022-07-31T11:56:28.609Z,72.6
2022-07-31T12:06:34.869Z,72.9
2022-07-31T12:11:36.769Z,73.4
2022-07-31T12:16:54.176Z,73.6
2022-07-31T12:22:00.589Z,73.7
2022-07-31T12:27:07.327Z,73.8
2022-07-31T12:32:13.337Z,74.2
2022-07-31T12:37:23.750Z,74.7
2022-07-31T12:42:30.427Z,75.4
2022-07-31T12:47:32.499Z,75.2
2022-07-31T12:52:42.918Z,75.9
2022-07-31T12:57:51.169Z,75.8
2022-07-31T13:02:55.277Z,75.8
2022-07-31T13:08:01.693Z,76.1
2022-07-31T13:13:08.056Z,76.1
2022-07-31T13:18:14.444Z,76.6
2022-07-31T13:23:52.039Z,76.7
2022-07-31T13:28:27.207Z,76.8
2022-07-31T13:33:33.586Z,77.5
2022-07-31T13:38:29.959Z,77.5
2022-07-31T13:44:00.529Z,77.7
2022-07-31T13:54:19.740Z,78.4
2022-07-31T14:00:18.223Z,78.8
2022-07-31T14:04:15.881Z,79.6
2022-07-31T14:09:18.875Z,79.5
2022-07-31T14:14:20.188Z,79.5
2022-07-31T14:19:21.617Z,80.1
2022-07-31T14:24:28.001Z,80.3
2022-07-31T14:29:44.449Z,80.3
2022-07-31T14:39:57.214Z,80.1
2022-07-31T14:45:23.631Z,80.3
2022-07-31T14:50:12.032Z,80.5
2022-07-31T14:55:16.356Z,80.6
2022-07-31T15:00:12.727Z,80.5
2022-07-31T15:06:48.871Z,80.5
2022-07-31T15:10:35.627Z,80.4
2022-07-31T15:15:42.131Z,80.3
2022-07-31T15:20:48.504Z,80.3
2022-07-31T15:25:44.870Z,80.1
2022-07-31T15:31:01.473Z,80.1
2022-07-31T15:36:10.240Z,79.9
2022-07-31T15:46:20.426Z,80.0
2022-07-31T15:51:16.788Z,79.9
2022-07-31T15:56:47.208Z,79.7
2022-07-31T16:01:29.661Z,79.6
2022-07-31T16:06:48.832Z,79.4
2022-07-31T16:12:04.230Z,80.6
2022-07-31T16:16:58.704Z,81.5
2022-07-31T16:21:55.082Z,82.4
2022-07-31T16:28:11.611Z,82.5
2022-07-31T16:32:17.910Z,82.9
2022-07-31T16:38:00.459Z,82.6
2022-07-31T17:09:36.020Z,83.0
2022-07-31T17:14:37.402Z,82.8
2022-07-31T17:19:49.782Z,83.2
2022-07-31T17:24:26.095Z,83.6
2022-07-31T17:29:46.500Z,84.5
2022-07-31T17:34:52.876Z,83.3
2022-07-31T17:39:57.733Z,83.7
2022-07-31T17:45:37.159Z,84.0
2022-07-31T17:50:50.264Z,83.2
2022-07-31T17:55:49.523Z,83.8
2022-07-31T18:00:59.915Z,83.6
2022-07-31T18:06:03.876Z,85.1
2022-07-31T18:11:10.284Z,84.7
2022-07-31T18:26:29.418Z,85.1
2022-07-31T18:36:42.176Z,85.0
2022-07-31T18:41:38.543Z,84.9
2022-07-31T18:47:19.006Z,84.9
2022-07-31T18:51:51.357Z,85.0
2022-07-31T18:56:56.730Z,85.3
2022-07-31T19:03:45.310Z,85.7
2022-07-31T19:07:20.533Z,86.4
2022-07-31T19:12:26.931Z,86.7
2022-07-31T19:17:23.292Z,86.5
2022-07-31T19:22:39.688Z,86.5
2022-07-31T19:28:11.527Z,86.6
2022-07-31T19:32:52.449Z,86.6
2022-07-31T19:38:12.864Z,87.1
2022-07-31T19:43:05.217Z,88.4
2022-07-31T19:48:02.060Z,88.5
2022-07-31T19:53:18.474Z,89.1
2022-07-31T19:58:28.840Z,89.3
2022-07-31T20:03:31.350Z,89.2
2022-07-31T20:08:41.619Z,89.0
2022-07-31T20:13:43.976Z,88.9
2022-07-31T20:18:40.481Z,89.1
2022-07-31T20:23:56.915Z,89.2
2022-07-31T20:29:03.295Z,90.0
2022-07-31T20:33:59.684Z,90.0
2022-07-31T20:39:22.487Z,90.0
2022-07-31T20:44:50.550Z,90.5
2022-07-31T20:49:35.484Z,90.5
2022-07-31T20:54:35.322Z,90.5
2022-07-31T20:59:31.687Z,90.6
2022-07-31T21:04:48.100Z,90.6
2022-07-31T21:09:54.482Z,90.8
2022-07-31T21:14:50.856Z,90.9
2022-07-31T21:20:50.297Z,91.2
2022-07-31T21:31:04.187Z,91.1
2022-07-31T21:35:36.406Z,91.2
2022-07-31T21:40:22.859Z,91.3
2022-07-31T21:45:50.879Z,91.4
2022-07-31T21:50:49.688Z,91.3
2022-07-31T21:55:52.058Z,91.3
2022-07-31T22:00:58.781Z,91.4
2022-07-31T22:06:05.121Z,91.6
2022-07-31T22:11:11.530Z,91.5
2022-07-31T22:16:17.921Z,91.7
2022-07-31T22:21:28.297Z,91.6
2022-07-31T22:36:43.420Z,91.3
2022-07-31T22:41:49.788Z,91.3
2022-07-31T22:46:46.153Z,91.3
2022-07-31T22:52:02.832Z,91.4
2022-07-31T23:02:05.692Z,91.7
2022-07-31T23:07:11.710Z,91.6
2022-07-31T23:18:32.608Z,91.7
2022-07-31T23:23:05.959Z,91.6
2022-07-31T23:28:22.384Z,91.6
2022-07-31T23:33:28.790Z,91.4
2022-07-31T23:38:35.180Z,91.3
2022-07-31T23:43:31.565Z,91.2
2022-07-31T23:48:48.014Z,91.1
2022-07-31T23:54:18.387Z,91.3
2022-07-31T23:59:00.996Z,91.8
